sensor_id;sensor_type;location;lat;lon;timestamp;P1;durP1;ratioP1;P2;durP2;ratioP2
20884;SDS011;10602;48.000;9.654;2023-03-24T00:01:16;4.40;;;3.50;;
20884;SDS011;10602;48.000;9.654;2023-03-24T00:03:44;4.90;;;3.77;;
20884;SDS011;10602;48.000;9.654;2023-03-24T00:06:13;3.93;;;3.47;;
20884;SDS011;10602;48.000;9.654;2023-03-24T00:08:42;4.30;;;3.60;;
20884;SDS011;10602;48.000;9.654;2023-03-24T00:13:55;4.13;;;3.30;;
20884;SDS011;10602;48.000;9.654;2023-03-24T00:16:23;3.40;;;2.97;;
20884;SDS011;10602;48.000;9.654;2023-03-24T00:18:51;4.13;;;3.00;;
20884;SDS011;10602;48.000;9.654;2023-03-24T00:21:19;4.93;;;3.63;;
20884;SDS011;10602;48.000;9.654;2023-03-24T00:23:49;3.70;;;3.40;;
20884;SDS011;10602;48.000;9.654;2023-03-24T00:26:19;6.40;;;4.40;;
20884;SDS011;10602;48.000;9.654;2023-03-24T00:28:47;5.57;;;3.87;;
20884;SDS011;10602;48.000;9.654;2023-03-24T00:31:16;4.33;;;3.90;;
20884;SDS011;10602;48.000;9.654;2023-03-24T00:33:44;5.60;;;4.00;;
20884;SDS011;10602;48.000;9.654;2023-03-24T00:36:16;4.33;;;3.83;;
20884;SDS011;10602;48.000;9.654;2023-03-24T00:41:24;5.00;;;3.87;;
20884;SDS011;10602;48.000;9.654;2023-03-24T00:43:54;5.07;;;4.03;;
20884;SDS011;10602;48.000;9.654;2023-03-24T00:46:24;5.07;;;3.70;;
20884;SDS011;10602;48.000;9.654;2023-03-24T00:51:43;5.83;;;3.90;;
20884;SDS011;10602;48.000;9.654;2023-03-24T00:57:37;3.60;;;3.30;;
20884;SDS011;10602;48.000;9.654;2023-03-24T01:02:49;5.27;;;3.60;;
20884;SDS011;10602;48.000;9.654;2023-03-24T01:05:23;4.70;;;4.00;;
20884;SDS011;10602;48.000;9.654;2023-03-24T01:08:25;5.93;;;3.93;;
20884;SDS011;10602;48.000;9.654;2023-03-24T01:10:56;4.63;;;3.93;;
20884;SDS011;10602;48.000;9.654;2023-03-24T01:13:41;4.67;;;3.70;;
20884;SDS011;10602;48.000;9.654;2023-03-24T01:16:17;4.87;;;4.37;;
20884;SDS011;10602;48.000;9.654;2023-03-24T01:18:45;5.33;;;4.03;;
20884;SDS011;10602;48.000;9.654;2023-03-24T01:21:23;5.53;;;4.10;;
20884;SDS011;10602;48.000;9.654;2023-03-24T01:23:51;6.60;;;3.73;;
20884;SDS011;10602;48.000;9.654;2023-03-24T01:32:16;4.27;;;3.83;;
20884;SDS011;10602;48.000;9.654;2023-03-24T01:34:43;5.90;;;4.27;;
20884;SDS011;10602;48.000;9.654;2023-03-24T01:37:11;5.13;;;4.53;;
20884;SDS011;10602;48.000;9.654;2023-03-24T01:39:39;4.60;;;4.13;;
20884;SDS011;10602;48.000;9.654;2023-03-24T01:42:09;5.20;;;4.33;;
20884;SDS011;10602;48.000;9.654;2023-03-24T01:44:40;5.80;;;4.13;;
20884;SDS011;10602;48.000;9.654;2023-03-24T01:47:09;5.47;;;4.37;;
20884;SDS011;10602;48.000;9.654;2023-03-24T01:49:37;6.03;;;4.50;;
20884;SDS011;10602;48.000;9.654;2023-03-24T01:52:09;4.23;;;3.77;;
20884;SDS011;10602;48.000;9.654;2023-03-24T01:54:41;4.83;;;4.00;;
20884;SDS011;10602;48.000;9.654;2023-03-24T01:57:13;4.90;;;4.10;;
20884;SDS011;10602;48.000;9.654;2023-03-24T01:59:43;5.97;;;4.20;;
20884;SDS011;10602;48.000;9.654;2023-03-24T02:02:13;4.70;;;4.07;;
20884;SDS011;10602;48.000;9.654;2023-03-24T02:04:42;5.10;;;4.30;;
20884;SDS011;10602;48.000;9.654;2023-03-24T02:07:14;4.43;;;4.03;;
20884;SDS011;10602;48.000;9.654;2023-03-24T02:09:54;4.53;;;4.00;;
20884;SDS011;10602;48.000;9.654;2023-03-24T02:12:21;4.03;;;3.60;;
20884;SDS011;10602;48.000;9.654;2023-03-24T02:14:49;5.43;;;4.33;;
20884;SDS011;10602;48.000;9.654;2023-03-24T02:17:29;5.87;;;4.07;;
20884;SDS011;10602;48.000;9.654;2023-03-24T02:20:17;7.40;;;4.37;;
20884;SDS011;10602;48.000;9.654;2023-03-24T02:25:56;6.73;;;4.20;;
20884;SDS011;10602;48.000;9.654;2023-03-24T02:28:36;5.77;;;3.90;;
20884;SDS011;10602;48.000;9.654;2023-03-24T02:31:14;6.97;;;3.67;;
20884;SDS011;10602;48.000;9.654;2023-03-24T02:37:08;4.50;;;3.70;;
20884;SDS011;10602;48.000;9.654;2023-03-24T02:39:50;6.77;;;3.80;;
20884;SDS011;10602;48.000;9.654;2023-03-24T02:50:53;5.03;;;4.10;;
20884;SDS011;10602;48.000;9.654;2023-03-24T02:53:36;4.10;;;3.43;;
20884;SDS011;10602;48.000;9.654;2023-03-24T02:56:25;4.97;;;3.33;;
20884;SDS011;10602;48.000;9.654;2023-03-24T02:59:11;5.17;;;3.70;;
20884;SDS011;10602;48.000;9.654;2023-03-24T03:01:50;3.90;;;3.43;;
20884;SDS011;10602;48.000;9.654;2023-03-24T03:04:32;4.67;;;3.77;;
20884;SDS011;10602;48.000;9.654;2023-03-24T03:07:02;4.93;;;4.10;;
20884;SDS011;10602;48.000;9.654;2023-03-24T03:09:46;6.37;;;3.70;;
20884;SDS011;10602;48.000;9.654;2023-03-24T03:12:22;4.43;;;3.70;;
20884;SDS011;10602;48.000;9.654;2023-03-24T03:14:59;4.20;;;3.50;;
20884;SDS011;10602;48.000;9.654;2023-03-24T03:26:08;4.83;;;3.97;;
20884;SDS011;10602;48.000;9.654;2023-03-24T03:29:33;5.40;;;3.67;;
20884;SDS011;10602;48.000;9.654;2023-03-24T04:07:29;4.77;;;4.13;;
20884;SDS011;10602;48.000;9.654;2023-03-24T04:10:24;4.87;;;3.97;;
20884;SDS011;10602;48.000;9.654;2023-03-24T04:18:22;6.03;;;4.47;;
20884;SDS011;10602;48.000;9.654;2023-03-24T04:26:47;5.57;;;4.60;;
20884;SDS011;10602;48.000;9.654;2023-03-24T04:29:24;5.70;;;4.60;;
20884;SDS011;10602;48.000;9.654;2023-03-24T04:32:15;8.03;;;6.70;;
20884;SDS011;10602;48.000;9.654;2023-03-24T04:34:59;23.03;;;14.93;;
20884;SDS011;10602;48.000;9.654;2023-03-24T04:37:28;15.67;;;11.10;;
20884;SDS011;10602;48.000;9.654;2023-03-24T04:40:01;19.03;;;14.17;;
20884;SDS011;10602;48.000;9.654;2023-03-24T04:42:40;11.17;;;7.70;;
20884;SDS011;10602;48.000;9.654;2023-03-24T04:45:05;8.30;;;5.50;;
20884;SDS011;10602;48.000;9.654;2023-03-24T04:47:36;4.87;;;4.17;;
20884;SDS011;10602;48.000;9.654;2023-03-24T04:50:07;5.00;;;4.27;;
20884;SDS011;10602;48.000;9.654;2023-03-24T04:52:41;4.90;;;4.40;;
20884;SDS011;10602;48.000;9.654;2023-03-24T04:57:58;5.67;;;4.37;;
20884;SDS011;10602;48.000;9.654;2023-03-24T05:00:26;4.57;;;4.17;;
20884;SDS011;10602;48.000;9.654;2023-03-24T05:02:53;5.03;;;4.00;;
20884;SDS011;10602;48.000;9.654;2023-03-24T05:05:21;4.90;;;4.30;;
20884;SDS011;10602;48.000;9.654;2023-03-24T05:07:49;5.50;;;4.30;;
20884;SDS011;10602;48.000;9.654;2023-03-24T05:10:16;5.40;;;4.47;;
20884;SDS011;10602;48.000;9.654;2023-03-24T05:12:44;7.00;;;4.40;;
20884;SDS011;10602;48.000;9.654;2023-03-24T05:15:11;8.23;;;4.23;;
20884;SDS011;10602;48.000;9.654;2023-03-24T05:17:40;4.73;;;3.90;;
20884;SDS011;10602;48.000;9.654;2023-03-24T05:20:09;4.83;;;3.90;;
20884;SDS011;10602;48.000;9.654;2023-03-24T05:22:39;4.17;;;3.47;;
20884;SDS011;10602;48.000;9.654;2023-03-24T05:25:07;5.00;;;3.60;;
20884;SDS011;10602;48.000;9.654;2023-03-24T05:27:35;3.67;;;2.97;;
20884;SDS011;10602;48.000;9.654;2023-03-24T05:30:06;3.97;;;3.03;;
20884;SDS011;10602;48.000;9.654;2023-03-24T05:32:34;3.43;;;3.13;;
20884;SDS011;10602;48.000;9.654;2023-03-24T05:35:02;3.07;;;2.53;;
20884;SDS011;10602;48.000;9.654;2023-03-24T05:37:31;3.13;;;2.50;;
20884;SDS011;10602;48.000;9.654;2023-03-24T05:39:58;3.27;;;2.77;;
20884;SDS011;10602;48.000;9.654;2023-03-24T05:42:31;2.70;;;2.50;;
20884;SDS011;10602;48.000;9.654;2023-03-24T05:44:55;3.00;;;2.67;;
20884;SDS011;10602;48.000;9.654;2023-03-24T05:47:23;3.13;;;2.40;;
20884;SDS011;10602;48.000;9.654;2023-03-24T05:49:52;2.40;;;2.20;;
20884;SDS011;10602;48.000;9.654;2023-03-24T05:52:20;2.63;;;2.40;;
20884;SDS011;10602;48.000;9.654;2023-03-24T06:00:55;3.53;;;2.40;;
20884;SDS011;10602;48.000;9.654;2023-03-24T06:03:24;3.40;;;2.57;;
20884;SDS011;10602;48.000;9.654;2023-03-24T06:05:53;2.50;;;2.30;;
20884;SDS011;10602;48.000;9.654;2023-03-24T06:08:21;2.40;;;2.20;;
20884;SDS011;10602;48.000;9.654;2023-03-24T06:10:49;2.73;;;2.30;;
20884;SDS011;10602;48.000;9.654;2023-03-24T06:13:18;2.70;;;2.50;;
20884;SDS011;10602;48.000;9.654;2023-03-24T06:15:46;2.63;;;2.43;;
20884;SDS011;10602;48.000;9.654;2023-03-24T06:18:13;4.03;;;2.70;;
20884;SDS011;10602;48.000;9.654;2023-03-24T06:20:42;3.70;;;2.83;;
20884;SDS011;10602;48.000;9.654;2023-03-24T06:23:09;3.57;;;2.83;;
20884;SDS011;10602;48.000;9.654;2023-03-24T06:25:37;3.37;;;2.90;;
20884;SDS011;10602;48.000;9.654;2023-03-24T06:28:08;14.57;;;6.53;;
20884;SDS011;10602;48.000;9.654;2023-03-24T06:30:41;18.57;;;8.37;;
20884;SDS011;10602;48.000;9.654;2023-03-24T06:33:14;17.57;;;7.83;;
20884;SDS011;10602;48.000;9.654;2023-03-24T06:35:41;9.67;;;5.97;;
20884;SDS011;10602;48.000;9.654;2023-03-24T06:38:09;9.90;;;6.50;;
20884;SDS011;10602;48.000;9.654;2023-03-24T06:40:37;8.63;;;6.23;;
20884;SDS011;10602;48.000;9.654;2023-03-24T06:58:41;5.97;;;4.90;;
20884;SDS011;10602;48.000;9.654;2023-03-24T07:01:09;4.83;;;4.03;;
20884;SDS011;10602;48.000;9.654;2023-03-24T07:03:37;5.07;;;4.57;;
20884;SDS011;10602;48.000;9.654;2023-03-24T07:06:06;5.27;;;4.40;;
20884;SDS011;10602;48.000;9.654;2023-03-24T07:08:34;10.17;;;7.63;;
20884;SDS011;10602;48.000;9.654;2023-03-24T07:11:03;8.63;;;6.87;;
20884;SDS011;10602;48.000;9.654;2023-03-24T07:13:33;6.50;;;4.77;;
20884;SDS011;10602;48.000;9.654;2023-03-24T07:16:01;5.73;;;4.77;;
20884;SDS011;10602;48.000;9.654;2023-03-24T07:18:28;7.00;;;5.30;;
20884;SDS011;10602;48.000;9.654;2023-03-24T07:20:56;5.20;;;4.70;;
20884;SDS011;10602;48.000;9.654;2023-03-24T07:23:23;5.67;;;4.97;;
20884;SDS011;10602;48.000;9.654;2023-03-24T07:25:52;7.77;;;5.03;;
20884;SDS011;10602;48.000;9.654;2023-03-24T07:28:19;6.63;;;5.50;;
20884;SDS011;10602;48.000;9.654;2023-03-24T07:30:47;6.17;;;5.00;;
20884;SDS011;10602;48.000;9.654;2023-03-24T07:33:14;5.23;;;4.73;;
20884;SDS011;10602;48.000;9.654;2023-03-24T07:35:42;7.13;;;5.37;;
20884;SDS011;10602;48.000;9.654;2023-03-24T07:38:10;8.30;;;5.37;;
20884;SDS011;10602;48.000;9.654;2023-03-24T07:40:38;7.83;;;5.50;;
20884;SDS011;10602;48.000;9.654;2023-03-24T07:43:05;6.77;;;4.87;;
20884;SDS011;10602;48.000;9.654;2023-03-24T07:45:33;5.63;;;5.10;;
20884;SDS011;10602;48.000;9.654;2023-03-24T07:48:00;6.10;;;4.83;;
20884;SDS011;10602;48.000;9.654;2023-03-24T07:50:28;6.53;;;4.97;;
20884;SDS011;10602;48.000;9.654;2023-03-24T07:52:56;6.37;;;5.40;;
20884;SDS011;10602;48.000;9.654;2023-03-24T07:55:24;5.90;;;5.10;;
20884;SDS011;10602;48.000;9.654;2023-03-24T07:57:51;6.50;;;4.80;;
20884;SDS011;10602;48.000;9.654;2023-03-24T08:00:19;5.53;;;4.60;;
20884;SDS011;10602;48.000;9.654;2023-03-24T08:02:49;16.27;;;11.70;;
20884;SDS011;10602;48.000;9.654;2023-03-24T08:05:19;27.87;;;16.40;;
20884;SDS011;10602;48.000;9.654;2023-03-24T08:07:48;6.03;;;4.60;;
20884;SDS011;10602;48.000;9.654;2023-03-24T08:10:21;5.87;;;3.90;;
20884;SDS011;10602;48.000;9.654;2023-03-24T08:12:53;4.20;;;3.30;;
20884;SDS011;10602;48.000;9.654;2023-03-24T08:15:21;4.97;;;3.83;;
20884;SDS011;10602;48.000;9.654;2023-03-24T08:17:49;4.70;;;3.53;;
20884;SDS011;10602;48.000;9.654;2023-03-24T08:20:18;5.20;;;4.70;;
20884;SDS011;10602;48.000;9.654;2023-03-24T08:22:46;5.43;;;3.50;;
20884;SDS011;10602;48.000;9.654;2023-03-24T08:25:16;3.80;;;3.20;;
20884;SDS011;10602;48.000;9.654;2023-03-24T08:27:44;3.40;;;3.10;;
20884;SDS011;10602;48.000;9.654;2023-03-24T08:30:16;5.83;;;3.60;;
20884;SDS011;10602;48.000;9.654;2023-03-24T08:32:54;3.67;;;2.80;;
20884;SDS011;10602;48.000;9.654;2023-03-24T08:35:20;3.80;;;2.87;;
20884;SDS011;10602;48.000;9.654;2023-03-24T08:37:49;8.50;;;4.30;;
20884;SDS011;10602;48.000;9.654;2023-03-24T08:40:18;3.13;;;2.70;;
20884;SDS011;10602;48.000;9.654;2023-03-24T08:42:49;3.60;;;3.30;;
20884;SDS011;10602;48.000;9.654;2023-03-24T08:45:18;3.43;;;2.90;;
20884;SDS011;10602;48.000;9.654;2023-03-24T08:47:49;4.20;;;3.10;;
20884;SDS011;10602;48.000;9.654;2023-03-24T08:50:23;3.17;;;2.87;;
20884;SDS011;10602;48.000;9.654;2023-03-24T08:52:48;3.47;;;3.17;;
20884;SDS011;10602;48.000;9.654;2023-03-24T08:55:17;4.23;;;3.10;;
20884;SDS011;10602;48.000;9.654;2023-03-24T08:57:50;3.53;;;3.23;;
20884;SDS011;10602;48.000;9.654;2023-03-24T09:00:16;5.40;;;3.50;;
20884;SDS011;10602;48.000;9.654;2023-03-24T09:02:46;4.53;;;3.57;;
20884;SDS011;10602;48.000;9.654;2023-03-24T09:05:16;4.00;;;3.50;;
20884;SDS011;10602;48.000;9.654;2023-03-24T09:07:44;4.20;;;3.43;;
20884;SDS011;10602;48.000;9.654;2023-03-24T09:10:13;5.57;;;3.57;;
20884;SDS011;10602;48.000;9.654;2023-03-24T09:12:41;4.97;;;3.97;;
20884;SDS011;10602;48.000;9.654;2023-03-24T09:15:10;6.73;;;5.30;;
20884;SDS011;10602;48.000;9.654;2023-03-24T09:17:38;4.50;;;4.10;;
20884;SDS011;10602;48.000;9.654;2023-03-24T09:20:07;5.63;;;4.40;;
20884;SDS011;10602;48.000;9.654;2023-03-24T09:22:37;4.40;;;3.70;;
20884;SDS011;10602;48.000;9.654;2023-03-24T09:25:05;4.73;;;3.60;;
20884;SDS011;10602;48.000;9.654;2023-03-24T09:27:34;4.50;;;3.83;;
20884;SDS011;10602;48.000;9.654;2023-03-24T09:30:02;4.23;;;3.83;;
20884;SDS011;10602;48.000;9.654;2023-03-24T09:32:31;5.53;;;3.93;;
20884;SDS011;10602;48.000;9.654;2023-03-24T09:34:59;5.43;;;3.73;;
20884;SDS011;10602;48.000;9.654;2023-03-24T09:37:30;4.83;;;3.53;;
20884;SDS011;10602;48.000;9.654;2023-03-24T09:39:58;5.03;;;3.53;;
20884;SDS011;10602;48.000;9.654;2023-03-24T09:42:34;4.93;;;4.33;;
20884;SDS011;10602;48.000;9.654;2023-03-24T09:45:04;4.03;;;3.63;;
20884;SDS011;10602;48.000;9.654;2023-03-24T09:47:39;5.00;;;3.90;;
20884;SDS011;10602;48.000;9.654;2023-03-24T09:50:15;3.80;;;3.40;;
20884;SDS011;10602;48.000;9.654;2023-03-24T09:52:39;4.10;;;3.70;;
20884;SDS011;10602;48.000;9.654;2023-03-24T09:55:12;4.13;;;3.73;;
20884;SDS011;10602;48.000;9.654;2023-03-24T09:57:43;5.23;;;3.30;;
20884;SDS011;10602;48.000;9.654;2023-03-24T10:02:46;3.40;;;3.03;;
20884;SDS011;10602;48.000;9.654;2023-03-24T10:05:16;4.47;;;3.10;;
20884;SDS011;10602;48.000;9.654;2023-03-24T10:10:40;4.00;;;3.13;;
20884;SDS011;10602;48.000;9.654;2023-03-24T10:13:25;4.17;;;3.70;;
20884;SDS011;10602;48.000;9.654;2023-03-24T10:21:44;3.50;;;3.20;;
20884;SDS011;10602;48.000;9.654;2023-03-24T10:29:24;3.60;;;2.90;;
20884;SDS011;10602;48.000;9.654;2023-03-24T10:32:02;3.10;;;2.53;;
20884;SDS011;10602;48.000;9.654;2023-03-24T10:34:31;3.37;;;2.60;;
20884;SDS011;10602;48.000;9.654;2023-03-24T10:37:01;2.83;;;2.53;;
20884;SDS011;10602;48.000;9.654;2023-03-24T10:39:30;3.20;;;2.33;;
20884;SDS011;10602;48.000;9.654;2023-03-24T10:41:59;4.17;;;2.30;;
20884;SDS011;10602;48.000;9.654;2023-03-24T10:44:27;2.80;;;2.60;;
20884;SDS011;10602;48.000;9.654;2023-03-24T10:46:58;3.00;;;2.70;;
20884;SDS011;10602;48.000;9.654;2023-03-24T10:49:27;3.43;;;3.13;;
20884;SDS011;10602;48.000;9.654;2023-03-24T10:51:59;2.50;;;2.23;;
20884;SDS011;10602;48.000;9.654;2023-03-24T10:54:29;2.40;;;2.20;;
20884;SDS011;10602;48.000;9.654;2023-03-24T11:07:33;2.83;;;2.50;;
20884;SDS011;10602;48.000;9.654;2023-03-24T11:10:05;3.93;;;2.93;;
20884;SDS011;10602;48.000;9.654;2023-03-24T11:12:35;3.33;;;3.03;;
20884;SDS011;10602;48.000;9.654;2023-03-24T11:17:51;4.00;;;2.80;;
20884;SDS011;10602;48.000;9.654;2023-03-24T11:20:19;4.33;;;3.23;;
20884;SDS011;10602;48.000;9.654;2023-03-24T11:23:03;3.43;;;3.13;;
20884;SDS011;10602;48.000;9.654;2023-03-24T11:25:27;4.10;;;2.50;;
20884;SDS011;10602;48.000;9.654;2023-03-24T11:27:58;5.10;;;3.63;;
20884;SDS011;10602;48.000;9.654;2023-03-24T11:30:27;3.43;;;3.13;;
20884;SDS011;10602;48.000;9.654;2023-03-24T11:32:57;3.37;;;3.07;;
20884;SDS011;10602;48.000;9.654;2023-03-24T11:35:25;3.20;;;2.90;;
20884;SDS011;10602;48.000;9.654;2023-03-24T11:37:54;2.93;;;2.63;;
20884;SDS011;10602;48.000;9.654;2023-03-24T11:40:27;2.70;;;2.40;;
20884;SDS011;10602;48.000;9.654;2023-03-24T11:43:00;2.90;;;2.53;;
20884;SDS011;10602;48.000;9.654;2023-03-24T11:45:26;2.63;;;2.10;;
20884;SDS011;10602;48.000;9.654;2023-03-24T11:47:58;3.30;;;3.00;;
20884;SDS011;10602;48.000;9.654;2023-03-24T11:53:10;2.83;;;2.50;;
20884;SDS011;10602;48.000;9.654;2023-03-24T11:58:44;2.10;;;1.90;;
20884;SDS011;10602;48.000;9.654;2023-03-24T12:06:54;1.77;;;1.67;;
20884;SDS011;10602;48.000;9.654;2023-03-24T12:09:42;1.70;;;1.60;;
20884;SDS011;10602;48.000;9.654;2023-03-24T12:12:29;2.10;;;1.90;;
20884;SDS011;10602;48.000;9.654;2023-03-24T12:20:27;1.87;;;1.60;;
20884;SDS011;10602;48.000;9.654;2023-03-24T12:23:23;1.70;;;1.57;;
20884;SDS011;10602;48.000;9.654;2023-03-24T12:25:54;1.40;;;1.30;;
20884;SDS011;10602;48.000;9.654;2023-03-24T12:31:28;2.07;;;1.77;;
20884;SDS011;10602;48.000;9.654;2023-03-24T12:34:28;2.20;;;1.70;;
20884;SDS011;10602;48.000;9.654;2023-03-24T12:39:09;1.60;;;1.50;;
20884;SDS011;10602;48.000;9.654;2023-03-24T12:44:22;1.60;;;1.30;;
20884;SDS011;10602;48.000;9.654;2023-03-24T12:50:02;2.90;;;2.40;;
20884;SDS011;10602;48.000;9.654;2023-03-24T12:57:46;2.97;;;1.70;;
20884;SDS011;10602;48.000;9.654;2023-03-24T13:00:17;1.97;;;1.73;;
20884;SDS011;10602;48.000;9.654;2023-03-24T13:02:47;1.13;;;1.03;;
20884;SDS011;10602;48.000;9.654;2023-03-24T13:05:20;1.10;;;1.00;;
20884;SDS011;10602;48.000;9.654;2023-03-24T13:07:51;1.60;;;1.20;;
20884;SDS011;10602;48.000;9.654;2023-03-24T13:10:24;1.77;;;1.53;;
20884;SDS011;10602;48.000;9.654;2023-03-24T13:12:55;1.47;;;1.37;;
20884;SDS011;10602;48.000;9.654;2023-03-24T13:15:43;1.20;;;1.10;;
20884;SDS011;10602;48.000;9.654;2023-03-24T13:18:35;1.47;;;1.30;;
20884;SDS011;10602;48.000;9.654;2023-03-24T13:23:51;1.87;;;1.77;;
20884;SDS011;10602;48.000;9.654;2023-03-24T13:34:34;1.60;;;1.40;;
20884;SDS011;10602;48.000;9.654;2023-03-24T13:37:11;2.27;;;1.93;;
20884;SDS011;10602;48.000;9.654;2023-03-24T13:39:41;1.70;;;1.60;;
20884;SDS011;10602;48.000;9.654;2023-03-24T13:44:59;1.77;;;1.67;;
20884;SDS011;10602;48.000;9.654;2023-03-24T13:47:45;2.73;;;1.97;;
20884;SDS011;10602;48.000;9.654;2023-03-24T13:50:16;1.50;;;1.40;;
20884;SDS011;10602;48.000;9.654;2023-03-24T13:52:44;1.80;;;1.50;;
20884;SDS011;10602;48.000;9.654;2023-03-24T13:55:18;1.37;;;1.27;;
20884;SDS011;10602;48.000;9.654;2023-03-24T13:57:54;1.60;;;1.47;;
20884;SDS011;10602;48.000;9.654;2023-03-24T14:00:26;2.33;;;1.70;;
20884;SDS011;10602;48.000;9.654;2023-03-24T14:02:55;2.43;;;1.70;;
20884;SDS011;10602;48.000;9.654;2023-03-24T14:08:11;1.23;;;1.13;;
20884;SDS011;10602;48.000;9.654;2023-03-24T14:10:47;1.63;;;1.53;;
20884;SDS011;10602;48.000;9.654;2023-03-24T14:13:18;1.20;;;1.10;;
20884;SDS011;10602;48.000;9.654;2023-03-24T14:15:55;0.93;;;0.93;;
20884;SDS011;10602;48.000;9.654;2023-03-24T18:08:11;3.27;;;2.60;;
20884;SDS011;10602;48.000;9.654;2023-03-24T18:10:38;3.40;;;2.83;;
20884;SDS011;10602;48.000;9.654;2023-03-24T18:13:06;5.30;;;3.70;;
20884;SDS011;10602;48.000;9.654;2023-03-24T18:15:35;5.10;;;3.50;;
20884;SDS011;10602;48.000;9.654;2023-03-24T18:18:04;7.43;;;5.67;;
20884;SDS011;10602;48.000;9.654;2023-03-24T18:20:31;6.23;;;4.90;;
20884;SDS011;10602;48.000;9.654;2023-03-24T18:23:01;10.30;;;5.87;;
20884;SDS011;10602;48.000;9.654;2023-03-24T18:25:29;9.07;;;5.67;;
20884;SDS011;10602;48.000;9.654;2023-03-24T18:27:57;24.40;;;11.93;;
20884;SDS011;10602;48.000;9.654;2023-03-24T18:30:24;2.37;;;2.10;;
20884;SDS011;10602;48.000;9.654;2023-03-24T18:32:52;2.23;;;2.00;;
20884;SDS011;10602;48.000;9.654;2023-03-24T18:35:19;8.97;;;5.77;;
20884;SDS011;10602;48.000;9.654;2023-03-24T18:37:47;11.57;;;6.17;;
20884;SDS011;10602;48.000;9.654;2023-03-24T18:40:15;2.50;;;1.90;;
20884;SDS011;10602;48.000;9.654;2023-03-24T18:42:42;2.20;;;1.80;;
20884;SDS011;10602;48.000;9.654;2023-03-24T18:45:10;22.17;;;9.30;;
20884;SDS011;10602;48.000;9.654;2023-03-24T18:47:45;2.93;;;2.43;;
20884;SDS011;10602;48.000;9.654;2023-03-24T18:50:13;2.93;;;2.23;;
20884;SDS011;10602;48.000;9.654;2023-03-24T18:52:40;4.23;;;2.57;;
20884;SDS011;10602;48.000;9.654;2023-03-24T18:55:13;10.30;;;4.97;;
20884;SDS011;10602;48.000;9.654;2023-03-24T18:57:38;4.63;;;3.20;;
20884;SDS011;10602;48.000;9.654;2023-03-24T19:00:06;4.90;;;3.67;;
20884;SDS011;10602;48.000;9.654;2023-03-24T19:02:35;3.60;;;2.23;;
20884;SDS011;10602;48.000;9.654;2023-03-24T19:05:03;3.10;;;1.90;;
20884;SDS011;10602;48.000;9.654;2023-03-24T19:07:31;9.60;;;5.70;;
20884;SDS011;10602;48.000;9.654;2023-03-24T19:09:58;6.07;;;3.67;;
20884;SDS011;10602;48.000;9.654;2023-03-24T19:12:26;1.70;;;1.50;;
20884;SDS011;10602;48.000;9.654;2023-03-24T19:14:54;2.97;;;2.13;;
20884;SDS011;10602;48.000;9.654;2023-03-24T19:17:21;2.20;;;1.73;;
20884;SDS011;10602;48.000;9.654;2023-03-24T19:19:49;2.43;;;1.60;;
20884;SDS011;10602;48.000;9.654;2023-03-24T19:22:16;3.50;;;1.83;;
20884;SDS011;10602;48.000;9.654;2023-03-24T19:24:45;2.20;;;1.93;;
20884;SDS011;10602;48.000;9.654;2023-03-24T19:27:13;2.87;;;1.80;;
20884;SDS011;10602;48.000;9.654;2023-03-24T19:29:41;2.70;;;2.10;;
20884;SDS011;10602;48.000;9.654;2023-03-24T19:32:09;3.37;;;2.60;;
20884;SDS011;10602;48.000;9.654;2023-03-24T19:34:36;3.00;;;2.13;;
20884;SDS011;10602;48.000;9.654;2023-03-24T19:37:04;3.33;;;3.00;;
20884;SDS011;10602;48.000;9.654;2023-03-24T19:39:33;6.37;;;4.60;;
20884;SDS011;10602;48.000;9.654;2023-03-24T19:42:03;9.77;;;8.77;;
20884;SDS011;10602;48.000;9.654;2023-03-24T19:44:32;3.83;;;2.20;;
20884;SDS011;10602;48.000;9.654;2023-03-24T19:47:00;4.23;;;2.57;;
20884;SDS011;10602;48.000;9.654;2023-03-24T19:49:28;2.80;;;2.10;;
20884;SDS011;10602;48.000;9.654;2023-03-24T19:51:55;3.10;;;1.97;;
20884;SDS011;10602;48.000;9.654;2023-03-24T19:54:23;2.50;;;2.00;;
20884;SDS011;10602;48.000;9.654;2023-03-24T19:56:50;5.17;;;3.30;;
20884;SDS011;10602;48.000;9.654;2023-03-24T19:59:18;3.53;;;2.40;;
20884;SDS011;10602;48.000;9.654;2023-03-24T20:01:47;2.60;;;1.90;;
20884;SDS011;10602;48.000;9.654;2023-03-24T20:04:16;2.17;;;1.83;;
20884;SDS011;10602;48.000;9.654;2023-03-24T20:06:43;3.93;;;2.53;;
20884;SDS011;10602;48.000;9.654;2023-03-24T20:09:11;2.40;;;1.90;;
20884;SDS011;10602;48.000;9.654;2023-03-24T20:11:39;1.93;;;1.70;;
20884;SDS011;10602;48.000;9.654;2023-03-24T20:14:07;2.30;;;2.00;;
20884;SDS011;10602;48.000;9.654;2023-03-24T20:16:35;2.67;;;2.33;;
20884;SDS011;10602;48.000;9.654;2023-03-24T20:19:02;2.87;;;1.87;;
20884;SDS011;10602;48.000;9.654;2023-03-24T20:21:30;4.43;;;2.63;;
20884;SDS011;10602;48.000;9.654;2023-03-24T20:23:58;2.07;;;1.80;;
20884;SDS011;10602;48.000;9.654;2023-03-24T20:26:25;2.37;;;1.70;;
20884;SDS011;10602;48.000;9.654;2023-03-24T20:28:54;7.53;;;4.13;;
20884;SDS011;10602;48.000;9.654;2023-03-24T20:31:22;2.00;;;1.80;;
